sensor_id;sensor_type;location;lat;lon;timestamp;P1;durP1;ratioP1;P2;durP2;ratioP2
63087;SDS011;49173;43.164;27.786;2023-02-07T00:00:45;10.13;;;6.70;;
63087;SDS011;49173;43.164;27.786;2023-02-07T00:03:12;11.23;;;6.82;;
63087;SDS011;49173;43.164;27.786;2023-02-07T00:05:38;13.48;;;7.22;;
63087;SDS011;49173;43.164;27.786;2023-02-07T00:08:04;10.88;;;6.68;;
63087;SDS011;49173;43.164;27.786;2023-02-07T00:10:31;9.88;;;6.55;;
63087;SDS011;49173;43.164;27.786;2023-02-07T00:12:58;11.98;;;7.10;;
63087;SDS011;49173;43.164;27.786;2023-02-07T00:15:25;14.13;;;7.13;;
63087;SDS011;49173;43.164;27.786;2023-02-07T00:17:51;12.82;;;7.47;;
63087;SDS011;49173;43.164;27.786;2023-02-07T00:20:18;14.25;;;7.53;;
63087;SDS011;49173;43.164;27.786;2023-02-07T00:22:47;18.27;;;8.87;;
63087;SDS011;49173;43.164;27.786;2023-02-07T00:25:13;11.05;;;6.68;;
63087;SDS011;49173;43.164;27.786;2023-02-07T00:27:39;10.77;;;7.07;;
63087;SDS011;49173;43.164;27.786;2023-02-07T00:30:05;10.55;;;6.53;;
63087;SDS011;49173;43.164;27.786;2023-02-07T00:32:31;11.20;;;7.40;;
63087;SDS011;49173;43.164;27.786;2023-02-07T00:34:59;10.20;;;7.05;;
63087;SDS011;49173;43.164;27.786;2023-02-07T00:37:26;10.40;;;6.53;;
63087;SDS011;49173;43.164;27.786;2023-02-07T00:39:52;12.15;;;7.30;;
63087;SDS011;49173;43.164;27.786;2023-02-07T00:42:21;10.48;;;6.63;;
63087;SDS011;49173;43.164;27.786;2023-02-07T00:44:47;18.77;;;7.30;;
63087;SDS011;49173;43.164;27.786;2023-02-07T00:47:23;10.38;;;7.05;;
63087;SDS011;49173;43.164;27.786;2023-02-07T00:49:49;12.30;;;7.47;;
63087;SDS011;49173;43.164;27.786;2023-02-07T00:52:15;8.57;;;6.20;;
63087;SDS011;49173;43.164;27.786;2023-02-07T00:54:59;8.65;;;5.80;;
63087;SDS011;49173;43.164;27.786;2023-02-07T00:57:25;11.88;;;7.38;;
63087;SDS011;49173;43.164;27.786;2023-02-07T01:00:00;11.38;;;7.18;;
63087;SDS011;49173;43.164;27.786;2023-02-07T01:02:37;11.25;;;6.82;;
63087;SDS011;49173;43.164;27.786;2023-02-07T01:05:04;7.90;;;5.35;;
63087;SDS011;49173;43.164;27.786;2023-02-07T01:07:31;10.52;;;6.78;;
63087;SDS011;49173;43.164;27.786;2023-02-07T01:09:58;10.77;;;6.53;;
63087;SDS011;49173;43.164;27.786;2023-02-07T01:12:24;9.40;;;6.28;;
63087;SDS011;49173;43.164;27.786;2023-02-07T01:14:50;10.25;;;7.13;;
63087;SDS011;49173;43.164;27.786;2023-02-07T01:17:16;9.52;;;6.28;;
63087;SDS011;49173;43.164;27.786;2023-02-07T01:19:42;9.52;;;6.65;;
63087;SDS011;49173;43.164;27.786;2023-02-07T01:22:08;11.80;;;6.88;;
63087;SDS011;49173;43.164;27.786;2023-02-07T01:24:34;10.52;;;6.13;;
63087;SDS011;49173;43.164;27.786;2023-02-07T01:27:01;10.50;;;5.55;;
63087;SDS011;49173;43.164;27.786;2023-02-07T01:29:30;8.95;;;5.90;;
63087;SDS011;49173;43.164;27.786;2023-02-07T01:31:56;10.75;;;6.93;;
63087;SDS011;49173;43.164;27.786;2023-02-07T01:34:21;9.93;;;6.20;;
63087;SDS011;49173;43.164;27.786;2023-02-07T01:36:47;11.50;;;7.28;;
63087;SDS011;49173;43.164;27.786;2023-02-07T01:39:13;16.35;;;8.65;;
63087;SDS011;49173;43.164;27.786;2023-02-07T01:41:40;11.60;;;7.78;;
63087;SDS011;49173;43.164;27.786;2023-02-07T01:46:53;12.73;;;7.07;;
63087;SDS011;49173;43.164;27.786;2023-02-07T01:49:21;11.35;;;7.55;;
63087;SDS011;49173;43.164;27.786;2023-02-07T01:51:51;11.75;;;7.13;;
63087;SDS011;49173;43.164;27.786;2023-02-07T01:54:19;12.43;;;7.00;;
63087;SDS011;49173;43.164;27.786;2023-02-07T01:56:49;11.80;;;6.72;;
63087;SDS011;49173;43.164;27.786;2023-02-07T01:59:19;10.63;;;6.25;;
63087;SDS011;49173;43.164;27.786;2023-02-07T02:01:47;10.77;;;6.05;;
63087;SDS011;49173;43.164;27.786;2023-02-07T02:04:13;10.68;;;6.55;;
63087;SDS011;49173;43.164;27.786;2023-02-07T02:06:38;12.48;;;7.18;;
63087;SDS011;49173;43.164;27.786;2023-02-07T02:09:10;10.23;;;6.82;;
63087;SDS011;49173;43.164;27.786;2023-02-07T02:14:31;9.13;;;6.28;;
63087;SDS011;49173;43.164;27.786;2023-02-07T02:17:39;7.47;;;4.97;;
63087;SDS011;49173;43.164;27.786;2023-02-07T02:31:44;8.48;;;6.03;;
63087;SDS011;49173;43.164;27.786;2023-02-07T02:34:34;10.65;;;5.68;;
63087;SDS011;49173;43.164;27.786;2023-02-07T02:37:16;8.32;;;5.60;;
63087;SDS011;49173;43.164;27.786;2023-02-07T02:42:36;11.52;;;6.53;;
63087;SDS011;49173;43.164;27.786;2023-02-07T02:45:11;8.38;;;5.57;;
63087;SDS011;49173;43.164;27.786;2023-02-07T02:47:39;9.95;;;6.30;;
63087;SDS011;49173;43.164;27.786;2023-02-07T02:50:11;13.93;;;7.40;;
63087;SDS011;49173;43.164;27.786;2023-02-07T02:52:42;9.13;;;6.38;;
63087;SDS011;49173;43.164;27.786;2023-02-07T02:55:08;12.10;;;6.70;;
63087;SDS011;49173;43.164;27.786;2023-02-07T02:57:50;10.30;;;5.95;;
63087;SDS011;49173;43.164;27.786;2023-02-07T03:00:22;10.52;;;6.72;;
63087;SDS011;49173;43.164;27.786;2023-02-07T03:05:55;12.13;;;6.95;;
63087;SDS011;49173;43.164;27.786;2023-02-07T03:19:05;8.95;;;5.82;;
63087;SDS011;49173;43.164;27.786;2023-02-07T03:24:05;7.68;;;4.97;;
63087;SDS011;49173;43.164;27.786;2023-02-07T03:26:41;9.95;;;5.30;;
63087;SDS011;49173;43.164;27.786;2023-02-07T03:29:10;7.60;;;5.15;;
63087;SDS011;49173;43.164;27.786;2023-02-07T03:31:40;9.77;;;5.85;;
63087;SDS011;49173;43.164;27.786;2023-02-07T03:34:13;8.80;;;5.50;;
63087;SDS011;49173;43.164;27.786;2023-02-07T03:36:48;8.20;;;5.68;;
63087;SDS011;49173;43.164;27.786;2023-02-07T03:39:19;11.15;;;6.38;;
63087;SDS011;49173;43.164;27.786;2023-02-07T03:41:48;9.90;;;5.30;;
63087;SDS011;49173;43.164;27.786;2023-02-07T03:44:21;9.60;;;5.90;;
63087;SDS011;49173;43.164;27.786;2023-02-07T03:46:50;10.57;;;6.80;;
63087;SDS011;49173;43.164;27.786;2023-02-07T03:49:17;10.40;;;6.47;;
63087;SDS011;49173;43.164;27.786;2023-02-07T03:51:43;8.68;;;6.40;;
63087;SDS011;49173;43.164;27.786;2023-02-07T03:54:09;8.95;;;6.07;;
63087;SDS011;49173;43.164;27.786;2023-02-07T03:56:36;10.07;;;4.97;;
63087;SDS011;49173;43.164;27.786;2023-02-07T03:59:02;10.00;;;5.95;;
63087;SDS011;49173;43.164;27.786;2023-02-07T04:01:29;10.00;;;7.15;;
63087;SDS011;49173;43.164;27.786;2023-02-07T04:03:55;9.80;;;6.55;;
63087;SDS011;49173;43.164;27.786;2023-02-07T04:06:21;8.13;;;5.15;;
63087;SDS011;49173;43.164;27.786;2023-02-07T04:08:47;9.73;;;6.20;;
63087;SDS011;49173;43.164;27.786;2023-02-07T04:11:13;9.38;;;6.38;;
63087;SDS011;49173;43.164;27.786;2023-02-07T04:13:39;11.77;;;6.80;;
63087;SDS011;49173;43.164;27.786;2023-02-07T04:16:05;8.90;;;5.78;;
63087;SDS011;49173;43.164;27.786;2023-02-07T04:18:32;10.77;;;5.03;;
63087;SDS011;49173;43.164;27.786;2023-02-07T04:21:02;9.68;;;5.78;;
63087;SDS011;49173;43.164;27.786;2023-02-07T04:23:29;9.25;;;6.13;;
63087;SDS011;49173;43.164;27.786;2023-02-07T04:25:55;10.90;;;6.53;;
63087;SDS011;49173;43.164;27.786;2023-02-07T04:28:21;8.35;;;5.90;;
63087;SDS011;49173;43.164;27.786;2023-02-07T04:30:47;10.80;;;5.78;;
63087;SDS011;49173;43.164;27.786;2023-02-07T04:33:13;10.52;;;6.28;;
63087;SDS011;49173;43.164;27.786;2023-02-07T04:35:39;10.65;;;6.25;;
63087;SDS011;49173;43.164;27.786;2023-02-07T04:38:05;8.05;;;5.55;;
63087;SDS011;49173;43.164;27.786;2023-02-07T04:40:31;8.52;;;6.07;;
63087;SDS011;49173;43.164;27.786;2023-02-07T04:42:57;9.38;;;5.53;;
63087;SDS011;49173;43.164;27.786;2023-02-07T04:45:23;10.43;;;5.85;;
63087;SDS011;49173;43.164;27.786;2023-02-07T04:47:49;10.93;;;6.63;;
63087;SDS011;49173;43.164;27.786;2023-02-07T04:50:15;8.48;;;6.20;;
63087;SDS011;49173;43.164;27.786;2023-02-07T04:52:41;8.80;;;5.57;;
63087;SDS011;49173;43.164;27.786;2023-02-07T04:55:07;9.18;;;5.20;;
63087;SDS011;49173;43.164;27.786;2023-02-07T04:57:33;8.63;;;5.68;;
63087;SDS011;49173;43.164;27.786;2023-02-07T04:59:59;9.43;;;5.43;;
63087;SDS011;49173;43.164;27.786;2023-02-07T05:02:24;10.38;;;7.28;;
63087;SDS011;49173;43.164;27.786;2023-02-07T05:04:50;10.52;;;6.90;;
63087;SDS011;49173;43.164;27.786;2023-02-07T05:07:16;8.65;;;6.13;;
63087;SDS011;49173;43.164;27.786;2023-02-07T05:09:42;11.25;;;6.13;;
63087;SDS011;49173;43.164;27.786;2023-02-07T05:12:08;7.90;;;5.65;;
63087;SDS011;49173;43.164;27.786;2023-02-07T05:14:34;10.05;;;6.35;;
63087;SDS011;49173;43.164;27.786;2023-02-07T05:17:00;11.18;;;6.63;;
63087;SDS011;49173;43.164;27.786;2023-02-07T05:19:25;8.25;;;5.43;;
63087;SDS011;49173;43.164;27.786;2023-02-07T05:21:51;9.65;;;6.78;;
63087;SDS011;49173;43.164;27.786;2023-02-07T05:24:17;8.25;;;6.07;;
63087;SDS011;49173;43.164;27.786;2023-02-07T05:26:43;10.02;;;7.35;;
63087;SDS011;49173;43.164;27.786;2023-02-07T05:29:09;11.50;;;6.88;;
63087;SDS011;49173;43.164;27.786;2023-02-07T05:31:34;11.05;;;6.90;;
63087;SDS011;49173;43.164;27.786;2023-02-07T05:34:23;10.17;;;6.93;;
63087;SDS011;49173;43.164;27.786;2023-02-07T05:36:49;12.43;;;7.93;;
63087;SDS011;49173;43.164;27.786;2023-02-07T05:39:15;11.20;;;6.75;;
63087;SDS011;49173;43.164;27.786;2023-02-07T05:41:40;12.02;;;7.80;;
63087;SDS011;49173;43.164;27.786;2023-02-07T05:44:06;13.50;;;8.52;;
63087;SDS011;49173;43.164;27.786;2023-02-07T05:46:32;8.02;;;5.63;;
63087;SDS011;49173;43.164;27.786;2023-02-07T05:48:57;10.90;;;7.70;;
63087;SDS011;49173;43.164;27.786;2023-02-07T05:51:23;9.23;;;6.63;;
63087;SDS011;49173;43.164;27.786;2023-02-07T05:53:49;9.90;;;6.00;;
63087;SDS011;49173;43.164;27.786;2023-02-07T05:56:15;8.98;;;6.15;;
63087;SDS011;49173;43.164;27.786;2023-02-07T05:58:40;9.98;;;6.10;;
63087;SDS011;49173;43.164;27.786;2023-02-07T06:01:06;12.43;;;7.72;;
63087;SDS011;49173;43.164;27.786;2023-02-07T06:03:32;11.38;;;6.78;;
63087;SDS011;49173;43.164;27.786;2023-02-07T06:05:58;10.13;;;6.25;;
63087;SDS011;49173;43.164;27.786;2023-02-07T06:08:23;8.88;;;5.72;;
63087;SDS011;49173;43.164;27.786;2023-02-07T06:10:49;8.88;;;5.10;;
63087;SDS011;49173;43.164;27.786;2023-02-07T06:13:15;9.98;;;6.13;;
63087;SDS011;49173;43.164;27.786;2023-02-07T06:15:41;9.00;;;6.30;;
63087;SDS011;49173;43.164;27.786;2023-02-07T06:18:06;7.72;;;5.75;;
63087;SDS011;49173;43.164;27.786;2023-02-07T06:20:32;9.23;;;6.30;;
63087;SDS011;49173;43.164;27.786;2023-02-07T06:22:58;9.65;;;6.40;;
63087;SDS011;49173;43.164;27.786;2023-02-07T06:25:24;8.63;;;5.72;;
63087;SDS011;49173;43.164;27.786;2023-02-07T06:27:50;7.63;;;5.43;;
63087;SDS011;49173;43.164;27.786;2023-02-07T06:30:16;12.77;;;7.10;;
63087;SDS011;49173;43.164;27.786;2023-02-07T06:32:42;10.82;;;6.03;;
63087;SDS011;49173;43.164;27.786;2023-02-07T06:35:08;9.98;;;6.22;;
63087;SDS011;49173;43.164;27.786;2023-02-07T06:37:34;11.43;;;6.28;;
63087;SDS011;49173;43.164;27.786;2023-02-07T06:39:59;9.73;;;6.38;;
63087;SDS011;49173;43.164;27.786;2023-02-07T06:42:25;9.15;;;6.00;;
63087;SDS011;49173;43.164;27.786;2023-02-07T06:44:51;8.18;;;5.63;;
63087;SDS011;49173;43.164;27.786;2023-02-07T06:47:17;9.25;;;5.90;;
63087;SDS011;49173;43.164;27.786;2023-02-07T06:49:45;8.68;;;5.85;;
63087;SDS011;49173;43.164;27.786;2023-02-07T06:52:11;7.95;;;5.20;;
63087;SDS011;49173;43.164;27.786;2023-02-07T06:54:37;8.50;;;5.20;;
63087;SDS011;49173;43.164;27.786;2023-02-07T06:57:04;7.20;;;5.18;;
63087;SDS011;49173;43.164;27.786;2023-02-07T06:59:30;9.13;;;6.00;;
63087;SDS011;49173;43.164;27.786;2023-02-07T07:01:55;8.98;;;5.78;;
63087;SDS011;49173;43.164;27.786;2023-02-07T07:04:22;11.02;;;6.63;;
63087;SDS011;49173;43.164;27.786;2023-02-07T07:06:48;7.65;;;5.53;;
63087;SDS011;49173;43.164;27.786;2023-02-07T07:09:14;7.43;;;5.05;;
63087;SDS011;49173;43.164;27.786;2023-02-07T07:11:43;8.38;;;4.63;;
63087;SDS011;49173;43.164;27.786;2023-02-07T07:14:10;10.27;;;6.15;;
63087;SDS011;49173;43.164;27.786;2023-02-07T07:16:41;9.57;;;6.13;;
63087;SDS011;49173;43.164;27.786;2023-02-07T07:19:14;8.20;;;5.50;;
63087;SDS011;49173;43.164;27.786;2023-02-07T07:21:41;7.38;;;5.38;;
63087;SDS011;49173;43.164;27.786;2023-02-07T07:24:08;7.72;;;5.03;;
63087;SDS011;49173;43.164;27.786;2023-02-07T07:26:39;13.15;;;7.95;;
63087;SDS011;49173;43.164;27.786;2023-02-07T07:29:09;8.25;;;6.15;;
63087;SDS011;49173;43.164;27.786;2023-02-07T07:31:36;9.05;;;6.50;;
63087;SDS011;49173;43.164;27.786;2023-02-07T07:34:02;10.88;;;6.18;;
63087;SDS011;49173;43.164;27.786;2023-02-07T07:36:28;8.13;;;5.32;;
63087;SDS011;49173;43.164;27.786;2023-02-07T07:38:56;7.60;;;5.03;;
63087;SDS011;49173;43.164;27.786;2023-02-07T07:41:26;9.65;;;6.45;;
63087;SDS011;49173;43.164;27.786;2023-02-07T07:43:53;10.00;;;6.57;;
63087;SDS011;49173;43.164;27.786;2023-02-07T07:48:51;20.50;;;9.70;;
63087;SDS011;49173;43.164;27.786;2023-02-07T07:51:17;10.65;;;5.78;;
63087;SDS011;49173;43.164;27.786;2023-02-07T07:53:51;13.02;;;7.63;;
63087;SDS011;49173;43.164;27.786;2023-02-07T07:56:17;19.55;;;9.63;;
63087;SDS011;49173;43.164;27.786;2023-02-07T07:58:44;6.88;;;4.65;;
63087;SDS011;49173;43.164;27.786;2023-02-07T08:01:10;10.60;;;6.55;;
63087;SDS011;49173;43.164;27.786;2023-02-07T08:03:36;9.18;;;5.60;;
63087;SDS011;49173;43.164;27.786;2023-02-07T08:06:08;15.77;;;6.03;;
63087;SDS011;49173;43.164;27.786;2023-02-07T08:08:34;9.90;;;5.95;;
63087;SDS011;49173;43.164;27.786;2023-02-07T08:11:01;9.52;;;6.45;;
63087;SDS011;49173;43.164;27.786;2023-02-07T08:13:32;8.00;;;5.10;;
63087;SDS011;49173;43.164;27.786;2023-02-07T08:15:59;9.60;;;6.00;;
63087;SDS011;49173;43.164;27.786;2023-02-07T08:18:26;7.32;;;5.10;;
63087;SDS011;49173;43.164;27.786;2023-02-07T08:20:53;9.13;;;5.53;;
63087;SDS011;49173;43.164;27.786;2023-02-07T08:23:20;6.85;;;5.00;;
63087;SDS011;49173;43.164;27.786;2023-02-07T08:25:49;7.25;;;5.53;;
63087;SDS011;49173;43.164;27.786;2023-02-07T08:28:17;8.95;;;6.18;;
63087;SDS011;49173;43.164;27.786;2023-02-07T08:30:47;10.98;;;6.00;;
63087;SDS011;49173;43.164;27.786;2023-02-07T08:33:15;10.60;;;6.70;;
63087;SDS011;49173;43.164;27.786;2023-02-07T08:38:11;10.70;;;5.20;;
63087;SDS011;49173;43.164;27.786;2023-02-07T08:40:41;9.55;;;6.05;;
63087;SDS011;49173;43.164;27.786;2023-02-07T08:43:08;10.40;;;6.10;;
63087;SDS011;49173;43.164;27.786;2023-02-07T08:45:40;8.35;;;5.55;;
63087;SDS011;49173;43.164;27.786;2023-02-07T08:48:12;8.80;;;6.20;;
63087;SDS011;49173;43.164;27.786;2023-02-07T08:50:39;9.52;;;5.70;;
63087;SDS011;49173;43.164;27.786;2023-02-07T08:53:08;8.55;;;5.95;;
63087;SDS011;49173;43.164;27.786;2023-02-07T08:55:34;8.38;;;5.30;;
63087;SDS011;49173;43.164;27.786;2023-02-07T08:58:08;9.93;;;5.78;;
63087;SDS011;49173;43.164;27.786;2023-02-07T09:00:38;7.47;;;5.63;;
63087;SDS011;49173;43.164;27.786;2023-02-07T09:03:04;9.05;;;6.00;;
63087;SDS011;49173;43.164;27.786;2023-02-07T09:05:37;9.70;;;6.22;;
63087;SDS011;49173;43.164;27.786;2023-02-07T09:08:03;8.40;;;6.35;;
63087;SDS011;49173;43.164;27.786;2023-02-07T09:10:33;7.53;;;5.05;;
63087;SDS011;49173;43.164;27.786;2023-02-07T09:13:01;9.05;;;5.53;;
63087;SDS011;49173;43.164;27.786;2023-02-07T09:15:27;8.57;;;5.80;;
63087;SDS011;49173;43.164;27.786;2023-02-07T09:17:53;8.27;;;5.25;;
63087;SDS011;49173;43.164;27.786;2023-02-07T09:20:20;9.77;;;5.93;;
63087;SDS011;49173;43.164;27.786;2023-02-07T09:22:52;9.70;;;6.30;;
63087;SDS011;49173;43.164;27.786;2023-02-07T09:25:40;8.63;;;4.85;;
63087;SDS011;49173;43.164;27.786;2023-02-07T09:28:06;9.52;;;5.53;;
63087;SDS011;49173;43.164;27.786;2023-02-07T09:30:33;9.50;;;6.05;;
63087;SDS011;49173;43.164;27.786;2023-02-07T09:33:03;9.82;;;5.38;;
63087;SDS011;49173;43.164;27.786;2023-02-07T09:35:50;9.35;;;6.43;;
63087;SDS011;49173;43.164;27.786;2023-02-07T09:38:20;7.97;;;5.03;;
63087;SDS011;49173;43.164;27.786;2023-02-07T09:40:50;8.05;;;4.72;;
63087;SDS011;49173;43.164;27.786;2023-02-07T09:43:32;9.63;;;5.30;;
63087;SDS011;49173;43.164;27.786;2023-02-07T09:46:09;9.55;;;5.80;;
63087;SDS011;49173;43.164;27.786;2023-02-07T09:48:51;6.40;;;3.72;;
63087;SDS011;49173;43.164;27.786;2023-02-07T09:51:23;7.65;;;5.60;;
63087;SDS011;49173;43.164;27.786;2023-02-07T09:54:38;8.27;;;5.45;;
63087;SDS011;49173;43.164;27.786;2023-02-07T09:56:50;11.63;;;5.22;;
63087;SDS011;49173;43.164;27.786;2023-02-07T09:59:24;7.65;;;5.43;;
63087;SDS011;49173;43.164;27.786;2023-02-07T10:02:03;11.65;;;6.65;;
63087;SDS011;49173;43.164;27.786;2023-02-07T10:04:38;8.30;;;5.80;;
63087;SDS011;49173;43.164;27.786;2023-02-07T10:07:08;8.32;;;5.22;;
63087;SDS011;49173;43.164;27.786;2023-02-07T10:09:40;9.88;;;5.65;;
63087;SDS011;49173;43.164;27.786;2023-02-07T10:21:02;7.38;;;5.53;;
63087;SDS011;49173;43.164;27.786;2023-02-07T10:26:49;13.20;;;6.35;;
63087;SDS011;49173;43.164;27.786;2023-02-07T10:29:12;8.70;;;5.95;;
63087;SDS011;49173;43.164;27.786;2023-02-07T10:31:46;7.78;;;5.65;;
63087;SDS011;49173;43.164;27.786;2023-02-07T10:34:23;10.57;;;6.50;;
63087;SDS011;49173;43.164;27.786;2023-02-07T10:36:52;9.02;;;5.50;;
63087;SDS011;49173;43.164;27.786;2023-02-07T10:39:36;9.10;;;5.38;;
63087;SDS011;49173;43.164;27.786;2023-02-07T10:42:16;9.82;;;5.72;;
63087;SDS011;49173;43.164;27.786;2023-02-07T10:44:56;10.25;;;5.55;;
63087;SDS011;49173;43.164;27.786;2023-02-07T10:47:22;8.73;;;5.70;;
63087;SDS011;49173;43.164;27.786;2023-02-07T10:49:52;7.43;;;5.22;;
63087;SDS011;49173;43.164;27.786;2023-02-07T10:52:30;5.88;;;4.05;;
63087;SDS011;49173;43.164;27.786;2023-02-07T10:55:03;6.10;;;4.55;;
63087;SDS011;49173;43.164;27.786;2023-02-07T10:57:35;8.48;;;5.10;;
63087;SDS011;49173;43.164;27.786;2023-02-07T11:00:25;8.73;;;5.93;;
63087;SDS011;49173;43.164;27.786;2023-02-07T11:03:16;8.07;;;5.70;;
63087;SDS011;49173;43.164;27.786;2023-02-07T11:05:59;9.65;;;5.80;;
63087;SDS011;49173;43.164;27.786;2023-02-07T11:08:31;7.75;;;5.10;;
63087;SDS011;49173;43.164;27.786;2023-02-07T11:13:46;9.35;;;5.70;;
63087;SDS011;49173;43.164;27.786;2023-02-07T11:16:17;9.10;;;6.45;;
63087;SDS011;49173;43.164;27.786;2023-02-07T11:21:30;9.27;;;6.15;;
63087;SDS011;49173;43.164;27.786;2023-02-07T11:24:24;7.30;;;5.20;;
63087;SDS011;49173;43.164;27.786;2023-02-07T11:29:30;7.80;;;5.60;;
63087;SDS011;49173;43.164;27.786;2023-02-07T11:32:04;9.07;;;6.18;;
63087;SDS011;49173;43.164;27.786;2023-02-07T11:34:44;8.30;;;5.30;;
63087;SDS011;49173;43.164;27.786;2023-02-07T11:37:34;6.30;;;4.63;;
63087;SDS011;49173;43.164;27.786;2023-02-07T11:40:22;11.75;;;5.18;;
63087;SDS011;49173;43.164;27.786;2023-02-07T11:45:44;7.68;;;5.30;;
63087;SDS011;49173;43.164;27.786;2023-02-07T11:53:35;8.65;;;4.68;;
63087;SDS011;49173;43.164;27.786;2023-02-07T11:56:06;6.93;;;4.65;;
63087;SDS011;49173;43.164;27.786;2023-02-07T11:58:46;13.27;;;5.35;;
63087;SDS011;49173;43.164;27.786;2023-02-07T12:01:17;8.35;;;4.93;;
63087;SDS011;49173;43.164;27.786;2023-02-07T12:06:49;7.57;;;5.32;;
63087;SDS011;49173;43.164;27.786;2023-02-07T12:09:38;8.15;;;5.35;;
63087;SDS011;49173;43.164;27.786;2023-02-07T12:12:10;10.10;;;5.90;;
63087;SDS011;49173;43.164;27.786;2023-02-07T12:17:50;9.25;;;5.63;;
63087;SDS011;49173;43.164;27.786;2023-02-07T12:20:23;9.43;;;5.88;;
63087;SDS011;49173;43.164;27.786;2023-02-07T12:23:12;8.52;;;5.53;;
63087;SDS011;49173;43.164;27.786;2023-02-07T12:26:05;9.50;;;5.35;;
63087;SDS011;49173;43.164;27.786;2023-02-07T12:40:03;7.07;;;4.30;;
63087;SDS011;49173;43.164;27.786;2023-02-07T12:42:54;7.20;;;3.50;;
63087;SDS011;49173;43.164;27.786;2023-02-07T12:50:59;8.38;;;3.25;;
63087;SDS011;49173;43.164;27.786;2023-02-07T12:59:56;6.35;;;4.05;;
63087;SDS011;49173;43.164;27.786;2023-02-07T13:07:38;10.88;;;7.07;;
63087;SDS011;49173;43.164;27.786;2023-02-07T13:18:18;9.68;;;6.03;;
63087;SDS011;49173;43.164;27.786;2023-02-07T13:23:47;12.13;;;6.50;;
63087;SDS011;49173;43.164;27.786;2023-02-07T13:26:22;9.07;;;6.15;;
63087;SDS011;49173;43.164;27.786;2023-02-07T13:28:52;9.70;;;5.90;;
63087;SDS011;49173;43.164;27.786;2023-02-07T13:34:24;12.77;;;7.32;;
63087;SDS011;49173;43.164;27.786;2023-02-07T13:37:02;8.50;;;6.20;;
63087;SDS011;49173;43.164;27.786;2023-02-07T13:42:18;10.35;;;6.47;;
63087;SDS011;49173;43.164;27.786;2023-02-07T13:45:17;8.93;;;5.68;;
63087;SDS011;49173;43.164;27.786;2023-02-07T13:56:09;8.93;;;6.15;;
63087;SDS011;49173;43.164;27.786;2023-02-07T13:58:58;9.82;;;6.80;;
63087;SDS011;49173;43.164;27.786;2023-02-07T14:01:54;12.18;;;6.78;;
63087;SDS011;49173;43.164;27.786;2023-02-07T14:04:24;10.02;;;6.15;;
63087;SDS011;49173;43.164;27.786;2023-02-07T14:07:16;10.70;;;6.93;;
63087;SDS011;49173;43.164;27.786;2023-02-07T14:09:56;7.65;;;5.50;;
63087;SDS011;49173;43.164;27.786;2023-02-07T14:12:29;12.63;;;7.60;;
63087;SDS011;49173;43.164;27.786;2023-02-07T14:15:17;16.30;;;9.52;;
63087;SDS011;49173;43.164;27.786;2023-02-07T14:21:20;12.20;;;8.00;;
63087;SDS011;49173;43.164;27.786;2023-02-07T14:31:58;8.95;;;6.20;;
63087;SDS011;49173;43.164;27.786;2023-02-07T14:34:57;11.55;;;6.75;;
63087;SDS011;49173;43.164;27.786;2023-02-07T14:40:26;11.27;;;5.85;;
63087;SDS011;49173;43.164;27.786;2023-02-07T14:43:15;11.77;;;6.57;;
63087;SDS011;49173;43.164;27.786;2023-02-07T14:51:13;9.95;;;6.32;;
63087;SDS011;49173;43.164;27.786;2023-02-07T14:53:49;9.93;;;6.43;;
63087;SDS011;49173;43.164;27.786;2023-02-07T14:56:42;10.95;;;6.63;;
63087;SDS011;49173;43.164;27.786;2023-02-07T14:59:28;11.55;;;6.47;;
63087;SDS011;49173;43.164;27.786;2023-02-07T15:02:27;11.00;;;6.78;;
63087;SDS011;49173;43.164;27.786;2023-02-07T15:08:03;11.48;;;7.38;;
63087;SDS011;49173;43.164;27.786;2023-02-07T15:10:53;14.45;;;9.07;;
63087;SDS011;49173;43.164;27.786;2023-02-07T15:13:30;10.13;;;6.70;;
63087;SDS011;49173;43.164;27.786;2023-02-07T15:16:24;13.07;;;8.45;;
63087;SDS011;49173;43.164;27.786;2023-02-07T15:19:07;18.30;;;7.68;;
63087;SDS011;49173;43.164;27.786;2023-02-07T15:21:55;11.77;;;7.47;;
63087;SDS011;49173;43.164;27.786;2023-02-07T15:27:19;14.32;;;8.43;;
63087;SDS011;49173;43.164;27.786;2023-02-07T15:29:56;32.38;;;17.65;;
63087;SDS011;49173;43.164;27.786;2023-02-07T15:32:40;15.50;;;9.35;;
63087;SDS011;49173;43.164;27.786;2023-02-07T15:35:24;13.32;;;7.97;;
63087;SDS011;49173;43.164;27.786;2023-02-07T15:37:53;15.85;;;8.70;;
63087;SDS011;49173;43.164;27.786;2023-02-07T15:40:37;13.10;;;8.27;;
63087;SDS011;49173;43.164;27.786;2023-02-07T15:43:05;14.43;;;8.73;;
63087;SDS011;49173;43.164;27.786;2023-02-07T15:46:08;13.88;;;8.65;;
63087;SDS011;49173;43.164;27.786;2023-02-07T15:48:44;10.95;;;7.03;;
63087;SDS011;49173;43.164;27.786;2023-02-07T15:51:12;12.82;;;8.07;;
63087;SDS011;49173;43.164;27.786;2023-02-07T15:53:40;14.35;;;8.52;;
63087;SDS011;49173;43.164;27.786;2023-02-07T15:56:11;14.35;;;8.10;;
63087;SDS011;49173;43.164;27.786;2023-02-07T15:58:40;12.10;;;7.50;;
63087;SDS011;49173;43.164;27.786;2023-02-07T16:01:41;14.85;;;8.93;;
63087;SDS011;49173;43.164;27.786;2023-02-07T16:04:01;13.95;;;7.45;;
63087;SDS011;49173;43.164;27.786;2023-02-07T16:06:29;13.32;;;8.07;;
63087;SDS011;49173;43.164;27.786;2023-02-07T16:09:02;13.68;;;8.15;;
63087;SDS011;49173;43.164;27.786;2023-02-07T16:11:37;15.30;;;8.95;;
63087;SDS011;49173;43.164;27.786;2023-02-07T16:14:22;14.32;;;9.20;;
63087;SDS011;49173;43.164;27.786;2023-02-07T16:16:54;13.85;;;9.32;;
63087;SDS011;49173;43.164;27.786;2023-02-07T16:19:24;12.93;;;8.10;;
63087;SDS011;49173;43.164;27.786;2023-02-07T16:22:01;14.35;;;9.07;;
63087;SDS011;49173;43.164;27.786;2023-02-07T16:24:39;17.25;;;8.88;;
63087;SDS011;49173;43.164;27.786;2023-02-07T16:27:19;13.57;;;8.02;;
63087;SDS011;49173;43.164;27.786;2023-02-07T16:29:55;11.18;;;7.63;;
63087;SDS011;49173;43.164;27.786;2023-02-07T16:32:23;13.95;;;8.85;;
63087;SDS011;49173;43.164;27.786;2023-02-07T16:34:53;12.75;;;7.10;;
63087;SDS011;49173;43.164;27.786;2023-02-07T16:37:20;14.63;;;8.63;;
63087;SDS011;49173;43.164;27.786;2023-02-07T16:39:48;14.63;;;9.43;;
63087;SDS011;49173;43.164;27.786;2023-02-07T16:42:15;13.60;;;8.52;;
63087;SDS011;49173;43.164;27.786;2023-02-07T16:44:44;12.63;;;8.40;;
63087;SDS011;49173;43.164;27.786;2023-02-07T16:47:14;13.30;;;8.25;;
63087;SDS011;49173;43.164;27.786;2023-02-07T16:49:45;13.30;;;8.88;;
63087;SDS011;49173;43.164;27.786;2023-02-07T16:52:11;13.93;;;9.32;;
63087;SDS011;49173;43.164;27.786;2023-02-07T16:54:38;15.30;;;9.63;;
63087;SDS011;49173;43.164;27.786;2023-02-07T16:57:04;17.40;;;9.93;;
63087;SDS011;49173;43.164;27.786;2023-02-07T16:59:39;14.52;;;9.35;;
63087;SDS011;49173;43.164;27.786;2023-02-07T17:02:13;14.27;;;7.83;;
63087;SDS011;49173;43.164;27.786;2023-02-07T17:04:40;11.93;;;8.23;;
63087;SDS011;49173;43.164;27.786;2023-02-07T17:07:08;17.42;;;9.18;;
63087;SDS011;49173;43.164;27.786;2023-02-07T17:09:36;11.50;;;7.15;;
63087;SDS011;49173;43.164;27.786;2023-02-07T17:12:04;11.80;;;8.25;;
63087;SDS011;49173;43.164;27.786;2023-02-07T17:14:31;11.10;;;6.82;;
63087;SDS011;49173;43.164;27.786;2023-02-07T17:17:01;11.75;;;7.78;;
63087;SDS011;49173;43.164;27.786;2023-02-07T17:19:27;11.07;;;7.28;;
63087;SDS011;49173;43.164;27.786;2023-02-07T17:21:57;12.30;;;7.45;;
63087;SDS011;49173;43.164;27.786;2023-02-07T17:26:51;10.75;;;7.07;;
63087;SDS011;49173;43.164;27.786;2023-02-07T17:29:23;11.23;;;6.80;;